Time;durP1;ratioP1;P1;durP2;ratioP2;P2;SDS_P1;SDS_P2;PMS_P1;PMS_P2;Temp;Humidity;BMP_temperature;BMP_pressure;BME280_temperature;BME280_humidity;BME280_pressure;Samples;Min_cycle;Max_cycle;Signal;HPM_P1;HPM_P2
2021/04/04 00:00:18;;;;;;;7.63;5.90;;;;;;;;;;4430478;32;20299;-55
2021/04/04 00:02:44;;;;;;;4.37;3.33;;;;;;;;;;4431049;32;20448;-56
2021/04/04 00:05:12;;;;;;;2.33;2.13;;;;;;;;;;4430750;32;20414;-58
2021/04/04 00:07:38;;;;;;;1.80;1.60;;;;;;;;;;4431396;32;20220;-55
2021/04/04 00:10:06;;;;;;;1.87;1.77;;;;;;;;;;4432013;32;20622;-55
2021/04/04 00:12:32;;;;;;;3.40;2.33;;;;;;;;;;4430818;32;20268;-55
2021/04/04 00:14:57;;;;;;;2.20;2.00;;;;;;;;;;4431825;32;20371;-56
2021/04/04 00:17:23;;;;;;;2.80;2.47;;;;;;;;;;4431135;32;20220;-56
2021/04/04 00:19:48;;;;;;;2.77;2.23;;;;;;;;;;4431786;32;20294;-57
2021/04/04 00:22:14;;;;;;;2.13;1.93;;;;;;;;;;4431233;32;20378;-56
2021/04/04 00:24:39;;;;;;;3.93;2.33;;;;;;;;;;4431682;32;20304;-57
2021/04/04 00:27:05;;;;;;;2.90;2.37;;;;;;;;;;4431252;32;20686;-55
2021/04/04 00:29:30;;;;;;;4.60;3.33;;;;;;;;;;4431394;32;20284;-55
2021/04/04 00:31:56;;;;;;;4.53;4.10;;;;;;;;;;4430922;32;20240;-56
2021/04/04 00:34:22;;;;;;;3.60;2.70;;;;;;;;;;4431670;32;20296;-56
2021/04/04 00:36:48;;;;;;;5.23;4.10;;;;;;;;;;4431260;32;20288;-56
2021/04/04 00:39:14;;;;;;;4.90;4.40;;;;;;;;;;4430456;32;20395;-56
2021/04/04 00:41:40;;;;;;;7.50;4.17;;;;;;;;;;4431213;32;20315;-55
2021/04/04 00:44:05;;;;;;;7.40;4.33;;;;;;;;;;4431013;32;20276;-55
2021/04/04 00:46:31;;;;;;;6.77;3.90;;;;;;;;;;4430236;32;20810;-56
2021/04/04 00:48:57;;;;;;;6.57;5.80;;;;;;;;;;4430062;32;20724;-57
2021/04/04 00:51:23;;;;;;;4.43;3.63;;;;;;;;;;4431253;32;20302;-55
2021/04/04 00:53:50;;;;;;;6.60;4.77;;;;;;;;;;4431268;32;20288;-55
2021/04/04 00:56:16;;;;;;;5.70;5.20;;;;;;;;;;4431539;32;20348;-56
2021/04/04 00:58:41;;;;;;;5.63;3.70;;;;;;;;;;4433889;32;20281;-56
2021/04/04 01:01:07;;;;;;;4.90;3.40;;;;;;;;;;4434746;32;20299;-56
2021/04/04 01:03:33;;;;;;;5.47;2.90;;;;;;;;;;4433749;32;20693;-56
2021/04/04 01:06:03;;;;;;;4.20;3.23;;;;;;;;;;4434780;32;20384;-56
2021/04/04 01:08:29;;;;;;;3.10;2.80;;;;;;;;;;4434029;32;20675;-57
2021/04/04 01:10:54;;;;;;;3.43;2.80;;;;;;;;;;4434958;32;20255;-57
2021/04/04 01:13:29;;;;;;;4.33;3.63;;;;;;;;;;4433361;32;20370;-57
2021/04/04 01:15:58;;;;;;;5.83;4.20;;;;;;;;;;4417995;32;20220;-55
2021/04/04 01:18:33;;;;;;;8.07;4.00;;;;;;;;;;4432245;32;20224;-55
2021/04/04 01:21:19;;;;;;;7.07;3.80;;;;;;;;;;4434787;32;20566;-55
2021/04/04 01:24:05;;;;;;;3.93;2.47;;;;;;;;;;4432331;32;20247;-56
2021/04/04 01:26:39;;;;;;;3.03;2.17;;;;;;;;;;4433700;32;20189;-58
2021/04/04 01:29:09;;;;;;;2.33;1.63;;;;;;;;;;4434025;32;20705;-56
2021/04/04 01:31:35;;;;;;;2.33;2.00;;;;;;;;;;4433579;32;20332;-56
2021/04/04 01:34:04;;;;;;;2.60;2.10;;;;;;;;;;4433884;32;20281;-56
2021/04/04 01:36:31;;;;;;;1.73;1.57;;;;;;;;;;4434173;32;20197;-55
2021/04/04 01:39:00;;;;;;;1.97;1.87;;;;;;;;;;4432584;32;20255;-57
2021/04/04 01:41:32;;;;;;;2.30;2.10;;;;;;;;;;4433507;32;20588;-57
2021/04/04 01:44:05;;;;;;;2.23;2.00;;;;;;;;;;4432361;32;20252;-55
2021/04/04 01:46:31;;;;;;;2.20;1.80;;;;;;;;;;4433501;32;20204;-56
2021/04/04 01:48:58;;;;;;;2.13;1.93;;;;;;;;;;4433629;32;20205;-56
2021/04/04 01:51:25;;;;;;;2.70;1.70;;;;;;;;;;4433531;32;20217;-56
2021/04/04 01:53:52;;;;;;;4.20;1.57;;;;;;;;;;4433799;32;20602;-56
2021/04/04 01:56:18;;;;;;;1.50;1.40;;;;;;;;;;4433550;32;20280;-56
2021/04/04 01:58:45;;;;;;;2.13;1.87;;;;;;;;;;4433451;32;20225;-55
2021/04/04 02:01:12;;;;;;;1.73;1.63;;;;;;;;;;4434014;32;20220;-56
2021/04/04 02:03:38;;;;;;;2.10;1.87;;;;;;;;;;4431462;32;20263;-56
2021/04/04 02:06:05;;;;;;;1.87;1.77;;;;;;;;;;4434169;32;20235;-56
2021/04/04 02:08:32;;;;;;;2.10;1.90;;;;;;;;;;4432577;32;20228;-55
2021/04/04 02:10:59;;;;;;;4.87;1.70;;;;;;;;;;4433659;32;20201;-57
2021/04/04 02:13:26;;;;;;;1.50;1.40;;;;;;;;;;4432525;32;20783;-56
2021/04/04 02:15:56;;;;;;;1.60;1.50;;;;;;;;;;4433827;32;20628;-56
2021/04/04 02:18:22;;;;;;;2.90;1.93;;;;;;;;;;4432680;32;20684;-55
2021/04/04 02:20:51;;;;;;;2.60;2.03;;;;;;;;;;4417168;32;20369;-55
2021/04/04 02:23:17;;;;;;;2.40;1.57;;;;;;;;;;4430290;32;20359;-56
2021/04/04 02:25:43;;;;;;;1.37;1.27;;;;;;;;;;4432374;32;20217;-56
2021/04/04 02:28:09;;;;;;;1.50;1.40;;;;;;;;;;4432452;32;20239;-55
2021/04/04 02:30:35;;;;;;;1.50;1.40;;;;;;;;;;4433309;32;20279;-55
2021/04/04 02:33:06;;;;;;;1.60;1.50;;;;;;;;;;4432244;32;20271;-55
2021/04/04 02:35:34;;;;;;;1.27;1.17;;;;;;;;;;4433200;32;20248;-54
2021/04/04 02:38:02;;;;;;;3.10;1.30;;;;;;;;;;4432722;32;20224;-55
2021/04/04 02:40:28;;;;;;;1.40;1.30;;;;;;;;;;4433393;32;20239;-55
2021/04/04 02:42:56;;;;;;;1.57;1.33;;;;;;;;;;4432394;32;20238;-55
2021/04/04 02:45:26;;;;;;;1.23;1.13;;;;;;;;;;4432080;32;20404;-56
2021/04/04 02:48:15;;;;;;;1.83;1.73;;;;;;;;;;4432658;32;20253;-56
2021/04/04 02:50:41;;;;;;;13.80;6.27;;;;;;;;;;4433356;32;20209;-55
2021/04/04 02:53:08;;;;;;;7.70;4.53;;;;;;;;;;4432121;32;20213;-55
2021/04/04 02:55:37;;;;;;;2.73;2.00;;;;;;;;;;4432751;32;20576;-55
2021/04/04 02:58:05;;;;;;;5.03;2.20;;;;;;;;;;4430688;32;20346;-55
2021/04/04 03:00:32;;;;;;;1.70;1.60;;;;;;;;;;4432023;32;20274;-56
2021/04/04 03:03:00;;;;;;;2.23;1.40;;;;;;;;;;4431710;32;20261;-57
2021/04/04 03:05:27;;;;;;;1.40;1.30;;;;;;;;;;4432576;32;20253;-56
2021/04/04 03:07:55;;;;;;;3.63;2.00;;;;;;;;;;4432138;32;20220;-55
2021/04/04 03:10:21;;;;;;;2.70;2.50;;;;;;;;;;4433041;32;20236;-56
2021/04/04 03:12:50;;;;;;;2.40;2.20;;;;;;;;;;4432297;32;20221;-55
2021/04/04 03:15:16;;;;;;;2.73;2.53;;;;;;;;;;4431855;32;20319;-57
2021/04/04 03:17:45;;;;;;;8.53;2.90;;;;;;;;;;4431378;32;20502;-55
2021/04/04 03:20:12;;;;;;;3.10;2.80;;;;;;;;;;4432364;32;20622;-55
2021/04/04 03:22:42;;;;;;;3.03;2.57;;;;;;;;;;4432240;32;20717;-56
2021/04/04 03:25:10;;;;;;;3.33;2.67;;;;;;;;;;4432820;32;20212;-55
2021/04/04 03:27:37;;;;;;;3.23;2.93;;;;;;;;;;4432100;32;20599;-56
2021/04/04 03:30:07;;;;;;;2.43;2.20;;;;;;;;;;4432824;32;20381;-55
2021/04/04 03:32:36;;;;;;;2.77;2.53;;;;;;;;;;4432212;32;20307;-55
2021/04/04 03:35:06;;;;;;;2.83;2.63;;;;;;;;;;4432841;32;20295;-56
2021/04/04 03:37:33;;;;;;;2.20;2.00;;;;;;;;;;4431942;32;20284;-55
2021/04/04 03:39:59;;;;;;;3.20;2.50;;;;;;;;;;4432651;32;20213;-55
2021/04/04 03:42:27;;;;;;;2.53;2.33;;;;;;;;;;4431665;32;20850;-55
2021/04/04 03:44:55;;;;;;;3.17;2.50;;;;;;;;;;4432326;32;20343;-56
2021/04/04 03:47:21;;;;;;;5.27;4.63;;;;;;;;;;4431735;32;20221;-55
2021/04/04 03:49:48;;;;;;;5.23;3.80;;;;;;;;;;4432710;32;20375;-58
2021/04/04 03:52:15;;;;;;;5.10;4.40;;;;;;;;;;4430463;32;20406;-58
2021/04/04 03:54:42;;;;;;;7.60;4.10;;;;;;;;;;4430904;32;20220;-59
2021/04/04 03:57:09;;;;;;;5.00;4.10;;;;;;;;;;4431887;32;20500;-59
2021/04/04 03:59:39;;;;;;;4.37;3.80;;;;;;;;;;4432227;32;20244;-59
2021/04/04 04:02:05;;;;;;;5.10;4.07;;;;;;;;;;4430329;32;20232;-59
2021/04/04 04:04:31;;;;;;;4.67;3.63;;;;;;;;;;4432288;32;20299;-59
2021/04/04 04:06:57;;;;;;;4.73;3.87;;;;;;;;;;4431655;32;20243;-58
2021/04/04 04:09:24;;;;;;;4.37;3.97;;;;;;;;;;4432114;32;20615;-58
2021/04/04 04:11:51;;;;;;;5.73;4.80;;;;;;;;;;4431289;32;20343;-58
2021/04/04 04:14:21;;;;;;;4.30;3.90;;;;;;;;;;4431967;32;20689;-59
2021/04/04 04:16:47;;;;;;;4.40;4.00;;;;;;;;;;4431503;32;20445;-59
2021/04/04 04:19:13;;;;;;;4.90;4.40;;;;;;;;;;4431838;32;20236;-61
2021/04/04 04:21:41;;;;;;;5.40;4.50;;;;;;;;;;4431883;32;20276;-58
2021/04/04 04:24:10;;;;;;;5.93;5.33;;;;;;;;;;4430805;32;20362;-54
2021/04/04 04:26:38;;;;;;;10.57;5.03;;;;;;;;;;4431333;32;20339;-54
2021/04/04 04:29:05;;;;;;;9.93;7.70;;;;;;;;;;4431886;32;20237;-55
2021/04/04 04:31:35;;;;;;;8.23;6.00;;;;;;;;;;4431392;32;20251;-54
2021/04/04 04:34:02;;;;;;;9.37;7.13;;;;;;;;;;4433720;32;20447;-54
2021/04/04 04:36:30;;;;;;;9.27;6.90;;;;;;;;;;4434756;32;20238;-55
2021/04/04 04:38:57;;;;;;;11.60;7.20;;;;;;;;;;4433244;32;20201;-55
2021/04/04 04:41:23;;;;;;;7.53;6.60;;;;;;;;;;4434173;32;20375;-54
2021/04/04 04:43:58;;;;;;;7.37;6.37;;;;;;;;;;4434494;32;20290;-55
2021/04/04 04:46:24;;;;;;;6.13;5.00;;;;;;;;;;4433411;32;20358;-54
2021/04/04 04:48:51;;;;;;;9.50;6.53;;;;;;;;;;4433388;32;20312;-55
2021/04/04 04:51:19;;;;;;;13.97;7.63;;;;;;;;;;4433246;32;20347;-55
2021/04/04 04:53:45;;;;;;;33.37;20.93;;;;;;;;;;4434587;32;20204;-55
2021/04/04 04:56:12;;;;;;;23.27;18.23;;;;;;;;;;4434866;32;20335;-56
2021/04/04 04:58:38;;;;;;;12.30;8.73;;;;;;;;;;4434134;32;20281;-54
2021/04/04 05:01:07;;;;;;;7.53;6.73;;;;;;;;;;4434900;32;20312;-55
2021/04/04 05:03:33;;;;;;;11.50;7.30;;;;;;;;;;4433592;32;20232;-55
2021/04/04 05:06:02;;;;;;;8.10;7.30;;;;;;;;;;4434991;32;20298;-54
2021/04/04 05:08:30;;;;;;;7.67;6.30;;;;;;;;;;4433976;32;20605;-55
2021/04/04 05:10:57;;;;;;;10.77;8.73;;;;;;;;;;4434493;32;20553;-55
2021/04/04 05:13:22;;;;;;;13.23;10.67;;;;;;;;;;4433852;32;20329;-54
2021/04/04 05:15:49;;;;;;;9.93;8.70;;;;;;;;;;4434704;32;20256;-54
2021/04/04 05:18:15;;;;;;;9.43;6.73;;;;;;;;;;4432380;32;20225;-55
2021/04/04 05:20:45;;;;;;;12.30;8.50;;;;;;;;;;4434445;32;20291;-57
2021/04/04 05:23:18;;;;;;;8.13;6.93;;;;;;;;;;4433446;32;20243;-59
2021/04/04 05:25:44;;;;;;;9.27;7.60;;;;;;;;;;4434126;32;20273;-59
2021/04/04 05:28:10;;;;;;;10.80;7.77;;;;;;;;;;4433835;32;20251;-60
2021/04/04 05:30:35;;;;;;;13.93;9.73;;;;;;;;;;4434297;32;20326;-59
2021/04/04 05:33:04;;;;;;;15.73;9.37;;;;;;;;;;4433503;32;20791;-59
2021/04/04 05:35:35;;;;;;;10.50;9.20;;;;;;;;;;4434367;32;20247;-59
2021/04/04 05:38:00;;;;;;;11.03;7.77;;;;;;;;;;4433455;32;20308;-58
2021/04/04 05:40:28;;;;;;;18.60;13.63;;;;;;;;;;4433791;32;20292;-58
2021/04/04 05:43:02;;;;;;;14.17;11.30;;;;;;;;;;4433064;32;20307;-59
2021/04/04 05:45:44;;;;;;;13.17;9.00;;;;;;;;;;4433691;32;20209;-54
2021/04/04 05:48:42;;;;;;;12.37;10.03;;;;;;;;;;4433527;32;20523;-55
2021/04/04 05:51:41;;;;;;;10.67;9.27;;;;;;;;;;4418687;32;20264;-56
2021/04/04 05:54:44;;;;;;;9.40;7.50;;;;;;;;;;4433506;32;20293;-54
2021/04/04 05:57:16;;;;;;;9.17;7.97;;;;;;;;;;4433256;32;20228;-55
2021/04/04 05:59:47;;;;;;;9.40;7.60;;;;;;;;;;4433927;32;20268;-54
2021/04/04 06:02:55;;;;;;;10.10;8.73;;;;;;;;;;4433091;32;20221;-55
2021/04/04 06:05:45;;;;;;;28.00;17.33;;;;;;;;;;4411855;32;20262;-55
2021/04/04 06:08:20;;;;;;;13.17;8.30;;;;;;;;;;4433358;32;20247;-55
2021/04/04 06:10:55;;;;;;;10.93;7.60;;;;;;;;;;4434059;32;20252;-55
2021/04/04 06:13:39;;;;;;;9.63;8.30;;;;;;;;;;4433548;32;20287;-56
2021/04/04 06:16:34;;;;;;;16.40;12.17;;;;;;;;;;4432577;32;20227;-55
2021/04/04 06:19:23;;;;;;;10.00;8.10;;;;;;;;;;4431305;32;20217;-55
2021/04/04 06:21:59;;;;;;;22.70;16.67;;;;;;;;;;4433185;32;20338;-55
2021/04/04 06:24:48;;;;;;;19.87;13.57;;;;;;;;;;4418526;32;20591;-56
2021/04/04 06:27:23;;;;;;;19.27;12.17;;;;;;;;;;4424234;32;20239;-55
2021/04/04 06:29:55;;;;;;;34.23;20.67;;;;;;;;;;4432198;32;20307;-55
2021/04/04 06:32:28;;;;;;;11.20;8.83;;;;;;;;;;4432545;32;20319;-55
2021/04/04 06:34:58;;;;;;;11.10;9.43;;;;;;;;;;4433595;32;20197;-55
2021/04/04 06:37:43;;;;;;;10.23;8.50;;;;;;;;;;4431519;32;20292;-55
2021/04/04 06:40:30;;;;;;;7.90;7.10;;;;;;;;;;4433179;32;20325;-55
2021/04/04 06:43:02;;;;;;;8.87;6.50;;;;;;;;;;4433341;32;20209;-54
2021/04/04 06:45:46;;;;;;;12.00;9.57;;;;;;;;;;4433374;32;20613;-54
2021/04/04 06:48:29;;;;;;;11.77;9.03;;;;;;;;;;4433010;32;20224;-55
2021/04/04 06:51:04;;;;;;;11.97;9.70;;;;;;;;;;4433205;32;20205;-54
2021/04/04 06:54:02;;;;;;;16.10;9.60;;;;;;;;;;4432595;32;20259;-55
2021/04/04 06:56:52;;;;;;;8.73;7.93;;;;;;;;;;4430927;32;20240;-55
2021/04/04 06:59:30;;;;;;;12.17;10.80;;;;;;;;;;4427108;32;20209;-55
2021/04/04 07:02:13;;;;;;;15.00;12.17;;;;;;;;;;4432125;32;20220;-55
2021/04/04 07:04:49;;;;;;;11.27;9.30;;;;;;;;;;4428299;32;20201;-55
2021/04/04 07:07:24;;;;;;;8.13;7.23;;;;;;;;;;4417596;32;20236;-55
2021/04/04 07:10:08;;;;;;;11.40;7.53;;;;;;;;;;4431849;32;20283;-55
2021/04/04 07:12:52;;;;;;;11.73;8.87;;;;;;;;;;4421038;32;20492;-55
2021/04/04 07:15:55;;;;;;;12.27;9.73;;;;;;;;;;4424260;32;20264;-55
2021/04/04 07:18:45;;;;;;;20.57;13.83;;;;;;;;;;4431235;32;20561;-55
2021/04/04 07:21:48;;;;;;;23.17;15.40;;;;;;;;;;4432260;32;20617;-55
2021/04/04 07:24:32;;;;;;;22.23;13.43;;;;;;;;;;4428673;32;20702;-55
2021/04/04 07:27:03;;;;;;;11.03;9.20;;;;;;;;;;4430934;32;20649;-59
2021/04/04 07:29:40;;;;;;;12.73;10.07;;;;;;;;;;4431125;32;20221;-59
2021/04/04 07:32:24;;;;;;;11.67;9.93;;;;;;;;;;4432614;32;20304;-59
2021/04/04 07:35:02;;;;;;;12.53;10.13;;;;;;;;;;4429929;32;20257;-59
2021/04/04 07:37:46;;;;;;;12.37;10.73;;;;;;;;;;4432274;32;20216;-59
2021/04/04 07:40:22;;;;;;;13.20;10.40;;;;;;;;;;4431666;32;20793;-59
2021/04/04 07:42:50;;;;;;;11.03;9.03;;;;;;;;;;4432299;32;20234;-60
2021/04/04 07:45:47;;;;;;;10.70;8.37;;;;;;;;;;4432064;32;20238;-59
2021/04/04 07:48:43;;;;;;;10.27;7.43;;;;;;;;;;4431543;32;20280;-59
2021/04/04 07:51:14;;;;;;;14.37;11.83;;;;;;;;;;4431264;32;20528;-55
2021/04/04 07:53:58;;;;;;;13.77;8.17;;;;;;;;;;4431434;32;20259;-55
2021/04/04 07:56:39;;;;;;;15.20;12.33;;;;;;;;;;4431225;32;20378;-55
2021/04/04 07:59:17;;;;;;;9.97;8.13;;;;;;;;;;4415843;32;20690;-54
2021/04/04 08:02:19;;;;;;;11.73;9.53;;;;;;;;;;4428572;32;20231;-55
2021/04/04 08:05:05;;;;;;;12.67;10.13;;;;;;;;;;4430809;32;20365;-55
2021/04/04 08:07:44;;;;;;;12.33;11.13;;;;;;;;;;4429817;32;20255;-56
2021/04/04 08:10:29;;;;;;;12.10;9.53;;;;;;;;;;4429247;32;20597;-55
2021/04/04 08:13:05;;;;;;;9.23;7.73;;;;;;;;;;4430936;32;20242;-55
2021/04/04 08:15:40;;;;;;;9.63;8.57;;;;;;;;;;4430978;32;20208;-55
2021/04/04 08:18:05;;;;;;;9.63;8.67;;;;;;;;;;4422723;32;20239;-55
2021/04/04 08:20:46;;;;;;;10.63;8.00;;;;;;;;;;4431685;32;20295;-55
2021/04/04 08:23:31;;;;;;;13.30;11.93;;;;;;;;;;4430848;32;20220;-55
2021/04/04 08:26:04;;;;;;;12.53;11.23;;;;;;;;;;4429618;32;20286;-55
2021/04/04 08:29:06;;;;;;;23.23;14.30;;;;;;;;;;4432054;32;20221;-54
2021/04/04 08:31:38;;;;;;;13.23;10.47;;;;;;;;;;4420469;32;20200;-54
2021/04/04 08:34:22;;;;;;;16.53;12.63;;;;;;;;;;4416631;32;20213;-56
2021/04/04 08:36:55;;;;;;;10.07;9.00;;;;;;;;;;4416652;32;20221;-55
2021/04/04 08:39:24;;;;;;;9.90;9.00;;;;;;;;;;4415498;32;20229;-55
2021/04/04 08:41:53;;;;;;;11.67;10.47;;;;;;;;;;4416371;32;20645;-56
2021/04/04 08:44:30;;;;;;;8.70;7.80;;;;;;;;;;4416741;32;20254;-56
2021/04/04 08:47:04;;;;;;;15.03;11.27;;;;;;;;;;4427575;32;20281;-56
2021/04/04 08:49:31;;;;;;;18.90;13.23;;;;;;;;;;4417046;32;20306;-58
2021/04/04 08:52:03;;;;;;;28.97;17.97;;;;;;;;;;4430938;32;20209;-59
2021/04/04 08:54:33;;;;;;;17.73;12.83;;;;;;;;;;4432040;32;20549;-58
2021/04/04 08:56:59;;;;;;;15.03;11.40;;;;;;;;;;4429086;32;20248;-58
2021/04/04 08:59:32;;;;;;;16.67;11.83;;;;;;;;;;4426086;32;20617;-59
2021/04/04 09:02:05;;;;;;;14.27;10.90;;;;;;;;;;4431539;32;20221;-54
2021/04/04 09:04:32;;;;;;;16.10;10.20;;;;;;;;;;4431806;32;20266;-55
2021/04/04 09:07:03;;;;;;;16.27;14.17;;;;;;;;;;4430674;32;20221;-55
2021/04/04 09:09:34;;;;;;;21.20;17.00;;;;;;;;;;4431226;32;20630;-59
2021/04/04 09:12:00;;;;;;;17.43;13.27;;;;;;;;;;4431974;32;20220;-59
2021/04/04 09:14:32;;;;;;;19.53;11.23;;;;;;;;;;4430353;32;20217;-60
2021/04/04 09:17:00;;;;;;;33.20;22.97;;;;;;;;;;4431632;32;20247;-59
2021/04/04 09:19:30;;;;;;;59.83;37.87;;;;;;;;;;4418643;32;20488;-59
2021/04/04 09:21:58;;;;;;;57.90;37.43;;;;;;;;;;4431360;32;20248;-59
2021/04/04 09:24:26;;;;;;;26.27;20.23;;;;;;;;;;4434445;32;20221;-59
2021/04/04 09:26:54;;;;;;;44.60;30.70;;;;;;;;;;4434628;32;20341;-59
2021/04/04 09:29:21;;;;;;;38.60;19.70;;;;;;;;;;4433940;32;20236;-59
2021/04/04 09:31:51;;;;;;;33.63;19.43;;;;;;;;;;4434190;32;20240;-58
2021/04/04 09:34:18;;;;;;;38.77;24.10;;;;;;;;;;4434349;32;20579;-58
2021/04/04 09:36:48;;;;;;;22.53;15.10;;;;;;;;;;4434309;32;20226;-59
2021/04/04 09:39:24;;;;;;;23.20;13.33;;;;;;;;;;4432434;32;20217;-59
2021/04/04 09:41:52;;;;;;;18.97;13.63;;;;;;;;;;4432871;32;20565;-59
2021/04/04 09:44:27;;;;;;;22.57;15.63;;;;;;;;;;4432531;32;20274;-58
2021/04/04 09:46:54;;;;;;;28.90;22.37;;;;;;;;;;4432866;32;20212;-59
2021/04/04 09:49:38;;;;;;;42.40;28.00;;;;;;;;;;4432058;32;20213;-58
2021/04/04 09:52:27;;;;;;;30.20;20.20;;;;;;;;;;4432724;32;20224;-59
2021/04/04 09:55:05;;;;;;;24.13;17.63;;;;;;;;;;4432968;32;20189;-55
2021/04/04 09:57:42;;;;;;;22.83;17.93;;;;;;;;;;4427487;32;20212;-55
2021/04/04 10:00:31;;;;;;;18.50;15.50;;;;;;;;;;4418894;32;20234;-55
2021/04/04 10:03:17;;;;;;;26.53;17.50;;;;;;;;;;4417214;32;20286;-55
2021/04/04 10:05:47;;;;;;;28.00;19.93;;;;;;;;;;4418559;32;20378;-55
2021/04/04 10:08:25;;;;;;;30.77;21.20;;;;;;;;;;4417265;32;20806;-55
2021/04/04 10:10:53;;;;;;;25.30;16.03;;;;;;;;;;4416932;32;20225;-54
2021/04/04 10:13:25;;;;;;;22.27;17.07;;;;;;;;;;4418413;32;20262;-55
2021/04/04 10:15:52;;;;;;;15.47;11.87;;;;;;;;;;4416981;32;20350;-54
2021/04/04 10:18:19;;;;;;;18.87;13.67;;;;;;;;;;4422911;32;20284;-56
2021/04/04 10:20:52;;;;;;;28.97;16.57;;;;;;;;;;4429845;32;20298;-55
2021/04/04 10:23:18;;;;;;;15.73;11.97;;;;;;;;;;4418303;32;20591;-55
2021/04/04 10:26:06;;;;;;;22.13;14.53;;;;;;;;;;4429260;32;20364;-55
2021/04/04 10:28:59;;;;;;;16.50;13.37;;;;;;;;;;4433667;32;20300;-55
2021/04/04 10:31:25;;;;;;;12.70;10.83;;;;;;;;;;4421962;32;20201;-55
2021/04/04 10:33:58;;;;;;;12.43;9.90;;;;;;;;;;4418355;32;20273;-55
2021/04/04 10:36:25;;;;;;;12.63;10.53;;;;;;;;;;4416925;32;20260;-54
2021/04/04 10:38:51;;;;;;;21.03;14.60;;;;;;;;;;4417951;32;20570;-55
2021/04/04 10:41:35;;;;;;;28.03;17.60;;;;;;;;;;4418208;32;20319;-54
2021/04/04 10:44:01;;;;;;;31.20;15.63;;;;;;;;;;4404920;32;20225;-54
2021/04/04 10:46:32;;;;;;;21.33;13.20;;;;;;;;;;4418291;32;20722;-55
2021/04/04 10:48:59;;;;;;;15.77;11.77;;;;;;;;;;4418327;32;20542;-55
2021/04/04 10:51:27;;;;;;;13.40;10.07;;;;;;;;;;4446214;32;20275;-55
2021/04/04 10:53:53;;;;;;;21.10;12.37;;;;;;;;;;4448724;32;20396;-55
2021/04/04 10:56:19;;;;;;;14.60;11.23;;;;;;;;;;4449069;32;20373;-55
2021/04/04 10:58:46;;;;;;;22.57;16.20;;;;;;;;;;4434214;32;20235;-59
2021/04/04 11:01:14;;;;;;;16.40;13.10;;;;;;;;;;4433247;32;20267;-58
2021/04/04 11:03:41;;;;;;;17.30;12.13;;;;;;;;;;4433148;32;20650;-58
2021/04/04 11:06:06;;;;;;;20.93;12.93;;;;;;;;;;4433566;32;20236;-58
2021/04/04 11:08:32;;;;;;;19.77;12.70;;;;;;;;;;4433306;32;20362;-54
2021/04/04 11:10:59;;;;;;;27.50;18.93;;;;;;;;;;4432965;32;20272;-54
2021/04/04 11:13:25;;;;;;;19.57;14.47;;;;;;;;;;4432282;32;20267;-54
2021/04/04 11:16:01;;;;;;;23.47;17.47;;;;;;;;;;4432912;32;20733;-55
2021/04/04 11:18:32;;;;;;;34.90;21.70;;;;;;;;;;4432746;32;20220;-54
2021/04/04 11:21:07;;;;;;;56.93;27.33;;;;;;;;;;4432954;32;20212;-55
2021/04/04 11:23:34;;;;;;;22.13;12.77;;;;;;;;;;4430098;32;20342;-55
2021/04/04 11:25:59;;;;;;;29.43;18.53;;;;;;;;;;4417165;32;20251;-55
2021/04/04 11:28:26;;;;;;;15.30;9.10;;;;;;;;;;4416101;32;20291;-54
2021/04/04 11:30:53;;;;;;;26.63;16.13;;;;;;;;;;4424875;32;20310;-55
2021/04/04 11:33:23;;;;;;;35.57;19.80;;;;;;;;;;4433169;32;20337;-55
2021/04/04 11:36:12;;;;;;;35.20;19.30;;;;;;;;;;4433040;32;20652;-55
2021/04/04 11:38:39;;;;;;;26.27;15.27;;;;;;;;;;4432846;32;20213;-55
2021/04/04 11:41:24;;;;;;;37.90;20.07;;;;;;;;;;4432119;32;20199;-56
2021/04/04 11:43:53;;;;;;;14.13;10.63;;;;;;;;;;4431243;32;20260;-55
2021/04/04 11:46:41;;;;;;;36.17;20.53;;;;;;;;;;4429986;32;20659;-55
2021/04/04 11:49:29;;;;;;;52.57;35.97;;;;;;;;;;4431697;32;20296;-55
2021/04/04 11:51:56;;;;;;;50.47;33.47;;;;;;;;;;4430813;32;20232;-55
2021/04/04 11:54:46;;;;;;;30.27;20.10;;;;;;;;;;4432278;32;20285;-56
2021/04/04 11:57:25;;;;;;;36.33;24.23;;;;;;;;;;4431781;32;20225;-56
2021/04/04 12:00:12;;;;;;;28.93;18.60;;;;;;;;;;4432684;32;20196;-56
2021/04/04 12:02:46;;;;;;;19.17;15.10;;;;;;;;;;4431771;32;20266;-56
2021/04/04 12:05:14;;;;;;;19.87;17.03;;;;;;;;;;4418192;32;20193;-54
2021/04/04 12:07:55;;;;;;;19.83;16.80;;;;;;;;;;4430801;32;20217;-54
2021/04/04 12:10:23;;;;;;;11.03;8.10;;;;;;;;;;4430574;32;20275;-55
2021/04/04 12:12:49;;;;;;;18.47;14.57;;;;;;;;;;4430933;32;20237;-55
2021/04/04 12:15:17;;;;;;;34.97;23.63;;;;;;;;;;4432142;32;20290;-56
2021/04/04 12:17:54;;;;;;;30.17;21.33;;;;;;;;;;4430548;32;20304;-55
2021/04/04 12:20:29;;;;;;;32.23;22.20;;;;;;;;;;4420845;32;20204;-55
2021/04/04 12:22:55;;;;;;;32.03;19.57;;;;;;;;;;4426694;32;20266;-55
2021/04/04 12:25:23;;;;;;;42.17;26.67;;;;;;;;;;4431119;32;20339;-55
2021/04/04 12:27:51;;;;;;;26.60;18.77;;;;;;;;;;4430380;32;20298;-55
2021/04/04 12:30:25;;;;;;;32.03;19.60;;;;;;;;;;4431466;32;20720;-56
2021/04/04 12:33:07;;;;;;;55.63;30.53;;;;;;;;;;4430544;32;20224;-56
2021/04/04 12:35:35;;;;;;;16.30;11.20;;;;;;;;;;4431642;32;20242;-55
2021/04/04 12:38:02;;;;;;;12.30;8.33;;;;;;;;;;4430528;32;20224;-55
2021/04/04 12:40:28;;;;;;;31.43;21.67;;;;;;;;;;4431626;32;20219;-55
2021/04/04 12:43:02;;;;;;;60.27;35.20;;;;;;;;;;4431526;32;20308;-55
2021/04/04 12:45:35;;;;;;;23.07;16.97;;;;;;;;;;4431657;32;20611;-55
2021/04/04 12:48:09;;;;;;;51.70;25.77;;;;;;;;;;4431866;32;20213;-55
2021/04/04 12:50:35;;;;;;;38.80;20.67;;;;;;;;;;4432157;32;20779;-55
2021/04/04 12:53:00;;;;;;;42.43;21.20;;;;;;;;;;4432166;32;20269;-55
2021/04/04 12:55:30;;;;;;;37.03;17.20;;;;;;;;;;4434564;32;20268;-55
2021/04/04 12:58:03;;;;;;;12.50;9.47;;;;;;;;;;4433124;32;20670;-55
2021/04/04 13:00:36;;;;;;;39.87;25.13;;;;;;;;;;4433193;32;20242;-55
2021/04/04 13:03:09;;;;;;;56.80;25.70;;;;;;;;;;4432799;32;20277;-55
2021/04/04 13:05:43;;;;;;;63.37;27.93;;;;;;;;;;4434250;32;20308;-55
2021/04/04 13:08:13;;;;;;;49.80;22.93;;;;;;;;;;4434731;32;20722;-55
2021/04/04 13:10:39;;;;;;;29.37;19.03;;;;;;;;;;4434696;32;20197;-55
2021/04/04 13:13:10;;;;;;;56.97;25.97;;;;;;;;;;4434484;32;20605;-54
2021/04/04 13:15:35;;;;;;;31.87;17.43;;;;;;;;;;4432610;32;20240;-55
2021/04/04 13:18:01;;;;;;;19.80;11.90;;;;;;;;;;4427493;32;20221;-55
2021/04/04 13:20:27;;;;;;;60.10;35.30;;;;;;;;;;4430334;32;20376;-55
2021/04/04 13:22:52;;;;;;;63.50;35.80;;;;;;;;;;4424618;32;20287;-54
2021/04/04 13:25:18;;;;;;;43.20;24.73;;;;;;;;;;4431986;32;20320;-56
2021/04/04 13:27:47;;;;;;;31.03;21.20;;;;;;;;;;4433958;32;20225;-55
2021/04/04 13:30:23;;;;;;;43.03;28.87;;;;;;;;;;4434329;32;20271;-55
2021/04/04 13:32:49;;;;;;;23.73;15.33;;;;;;;;;;4434615;32;20239;-55
2021/04/04 13:35:30;;;;;;;26.23;18.67;;;;;;;;;;4434221;32;20288;-55
2021/04/04 13:37:57;;;;;;;29.07;19.30;;;;;;;;;;4434444;32;20676;-55
2021/04/04 13:40:24;;;;;;;27.37;17.00;;;;;;;;;;4434458;32;20748;-55
2021/04/04 13:42:51;;;;;;;23.30;15.97;;;;;;;;;;4434567;32;20251;-55
2021/04/04 13:45:46;;;;;;;17.07;11.47;;;;;;;;;;4434015;32;20257;-56
2021/04/04 13:48:27;;;;;;;15.63;11.73;;;;;;;;;;4434199;32;20341;-55
2021/04/04 13:50:53;;;;;;;21.40;16.20;;;;;;;;;;4433996;32;20266;-55
2021/04/04 13:53:44;;;;;;;21.73;16.90;;;;;;;;;;4433517;32;20216;-54
2021/04/04 13:56:15;;;;;;;32.50;14.10;;;;;;;;;;4431794;32;20668;-54
2021/04/04 13:58:43;;;;;;;17.67;12.77;;;;;;;;;;4433487;32;20212;-54
2021/04/04 14:01:30;;;;;;;25.13;17.43;;;;;;;;;;4433691;32;20232;-56
2021/04/04 14:03:57;;;;;;;25.20;16.40;;;;;;;;;;4433815;32;20755;-55
2021/04/04 14:06:38;;;;;;;17.83;14.10;;;;;;;;;;4432308;32;20418;-55
2021/04/04 14:09:06;;;;;;;19.70;15.47;;;;;;;;;;4434190;32;20201;-55
2021/04/04 14:11:32;;;;;;;19.87;14.77;;;;;;;;;;4432738;32;20225;-55
2021/04/04 14:13:57;;;;;;;31.37;22.53;;;;;;;;;;4434049;32;20268;-55
2021/04/04 14:16:23;;;;;;;24.67;18.90;;;;;;;;;;4433921;32;20298;-54
2021/04/04 14:18:48;;;;;;;16.47;13.47;;;;;;;;;;4408362;32;20327;-54
2021/04/04 14:21:14;;;;;;;11.93;9.50;;;;;;;;;;4417178;32;20292;-55
2021/04/04 14:23:40;;;;;;;25.10;15.67;;;;;;;;;;4418518;32;20278;-55
2021/04/04 14:26:07;;;;;;;26.97;16.83;;;;;;;;;;4432500;32;20762;-56
2021/04/04 14:28:34;;;;;;;45.30;29.17;;;;;;;;;;4427973;32;20334;-54
2021/04/04 14:31:01;;;;;;;38.07;24.03;;;;;;;;;;4428254;32;20262;-56
2021/04/04 14:33:26;;;;;;;28.43;14.97;;;;;;;;;;4431711;32;20232;-54
2021/04/04 14:35:53;;;;;;;24.53;19.37;;;;;;;;;;4433567;32;20354;-55
2021/04/04 14:38:18;;;;;;;15.60;12.10;;;;;;;;;;4433549;32;20300;-55
2021/04/04 14:40:46;;;;;;;12.13;10.67;;;;;;;;;;4433826;32;20582;-54
2021/04/04 14:46:02;;;;;;;16.87;13.00;;;;;;;;;;4423836;32;20284;-55
2021/04/04 14:48:28;;;;;;;13.00;10.90;;;;;;;;;;4432905;32;20630;-55
2021/04/04 14:50:54;;;;;;;16.77;12.73;;;;;;;;;;4432975;32;20730;-55
2021/04/04 14:53:20;;;;;;;15.13;8.93;;;;;;;;;;4431892;32;20378;-55
2021/04/04 14:55:47;;;;;;;28.63;13.97;;;;;;;;;;4432479;32;20390;-55
2021/04/04 14:58:14;;;;;;;13.10;8.83;;;;;;;;;;4428762;32;20331;-54